createdAt,value
2022-11-02T00:00:41.394Z,7.91
2022-11-02T00:03:09.834Z,7.85
2022-11-02T00:05:39.006Z,7.82
2022-11-02T00:08:06.529Z,7.83
2022-11-02T00:10:35.445Z,7.87
2022-11-02T00:13:06.628Z,7.89
2022-11-02T00:15:37.333Z,7.92
2022-11-02T00:18:12.110Z,7.78
2022-11-02T00:20:43.378Z,7.76
2022-11-02T00:23:13.534Z,7.75
2022-11-02T00:25:46.802Z,7.71
2022-11-02T00:28:16.264Z,7.68
2022-11-02T00:30:44.796Z,7.70
2022-11-02T00:33:13.757Z,7.56
2022-11-02T00:35:42.501Z,7.65
2022-11-02T00:38:11.747Z,7.59
2022-11-02T00:40:39.874Z,7.64
2022-11-02T00:43:07.817Z,7.47
2022-11-02T00:45:38.411Z,7.34
2022-11-02T00:48:06.849Z,7.45
2022-11-02T00:50:35.491Z,7.44
2022-11-02T00:53:05.578Z,7.40
2022-11-02T00:55:33.533Z,7.39
2022-11-02T00:58:05.505Z,7.35
2022-11-02T01:00:33.987Z,7.38
2022-11-02T01:03:02.754Z,7.50
2022-11-02T01:05:31.006Z,7.45
2022-11-02T01:08:01.732Z,7.48
2022-11-02T01:10:30.604Z,7.53
2022-11-02T01:13:01.619Z,7.45
2022-11-02T01:15:29.406Z,7.51
2022-11-02T01:17:56.891Z,7.47
2022-11-02T01:20:24.467Z,7.44
2022-11-02T01:22:53.291Z,7.44
2022-11-02T01:25:20.875Z,7.52
2022-11-02T01:27:48.396Z,7.50
2022-11-02T01:30:16.119Z,7.50
2022-11-02T01:32:44.638Z,7.55
2022-11-02T01:35:12.294Z,7.57
2022-11-02T01:37:41.361Z,7.57
2022-11-02T01:40:09.992Z,7.57
2022-11-02T01:42:38.093Z,7.56
2022-11-02T01:45:06.398Z,7.56
2022-11-02T01:47:41.111Z,7.57
2022-11-02T01:50:15.427Z,7.52
2022-11-02T01:52:43.660Z,7.52
2022-11-02T01:55:21.151Z,7.46
2022-11-02T01:57:55.931Z,7.38
2022-11-02T02:00:23.783Z,7.32
2022-11-02T02:03:02.534Z,7.24
2022-11-02T02:05:36.106Z,7.33
2022-11-02T02:08:04.291Z,7.29
2022-11-02T02:10:33.626Z,7.28
2022-11-02T02:13:06.973Z,7.24
2022-11-02T02:16:15.422Z,7.21
2022-11-02T02:19:33.277Z,7.12
2022-11-02T02:22:06.494Z,7.17
2022-11-02T02:25:02.891Z,7.18
2022-11-02T02:27:49.879Z,7.06
2022-11-02T02:30:18.955Z,7.15
2022-11-02T02:32:56.129Z,7.12
2022-11-02T02:35:53.415Z,7.00
2022-11-02T02:38:30.165Z,7.08
2022-11-02T02:41:27.137Z,7.06
2022-11-02T02:43:57.961Z,7.07
2022-11-02T02:46:48.293Z,7.04
2022-11-02T02:49:22.764Z,7.09
2022-11-02T02:51:51.892Z,6.96
2022-11-02T02:54:25.245Z,7.00
2022-11-02T02:57:01.149Z,6.99
2022-11-02T02:59:44.218Z,6.98
2022-11-02T03:02:22.242Z,6.99
2022-11-02T03:04:50.119Z,7.03
2022-11-02T03:07:32.762Z,7.09
2022-11-02T03:10:33.162Z,6.99
2022-11-02T03:13:10.475Z,7.02
2022-11-02T03:15:43.684Z,6.95
2022-11-02T03:19:07.682Z,6.96
2022-11-02T03:21:44.894Z,7.03
2022-11-02T03:24:37.577Z,7.01
2022-11-02T03:27:29.937Z,7.05
2022-11-02T03:30:10.771Z,6.92
2022-11-02T03:32:53.009Z,6.90
2022-11-02T03:35:52.794Z,6.95
2022-11-02T03:38:37.205Z,6.87
2022-11-02T03:41:08.827Z,6.74
2022-11-02T03:43:38.957Z,6.78
2022-11-02T03:46:08.899Z,6.74
2022-11-02T03:48:44.231Z,6.83
2022-11-02T03:51:18.122Z,6.84
2022-11-02T03:53:55.174Z,6.79
2022-11-02T03:56:30.333Z,6.75
2022-11-02T03:58:58.771Z,6.70
2022-11-02T04:01:28.932Z,6.65
2022-11-02T04:03:57.333Z,6.66
2022-11-02T04:06:26.643Z,6.74
2022-11-02T04:08:54.379Z,6.72
2022-11-02T04:11:42.039Z,6.75
2022-11-02T04:14:30.488Z,6.85
2022-11-02T04:17:18.138Z,6.85
2022-11-02T04:19:50.079Z,6.90
2022-11-02T04:22:39.053Z,6.84
2022-11-02T04:25:18.603Z,6.80
2022-11-02T04:28:09.622Z,6.85
2022-11-02T04:30:44.154Z,6.93
2022-11-02T04:33:30.413Z,6.90
2022-11-02T04:36:09.287Z,6.72
2022-11-02T04:38:41.764Z,6.79
2022-11-02T04:41:36.006Z,6.89
2022-11-02T04:44:05.930Z,6.98
2022-11-02T04:46:36.322Z,7.06
2022-11-02T04:49:06.478Z,7.06
2022-11-02T04:51:36.902Z,7.11
2022-11-02T04:54:05.441Z,7.14
2022-11-02T04:56:35.002Z,7.08
2022-11-02T04:59:02.608Z,7.04
2022-11-02T05:01:34.585Z,6.91
2022-11-02T05:04:03.928Z,6.95
2022-11-02T05:06:34.433Z,6.93
2022-11-02T05:09:02.011Z,6.91
2022-11-02T05:11:31.274Z,6.98
2022-11-02T05:13:58.891Z,6.94
2022-11-02T05:16:30.562Z,6.92
2022-11-02T05:19:00.808Z,6.93
2022-11-02T05:21:28.922Z,6.97
2022-11-02T05:23:57.218Z,6.97
2022-11-02T05:26:25.255Z,7.07
2022-11-02T05:28:53.128Z,7.11
2022-11-02T05:31:21.776Z,7.20
2022-11-02T05:33:50.570Z,7.22
2022-11-02T05:36:21.693Z,7.27
2022-11-02T05:38:55.710Z,7.30
2022-11-02T05:41:24.025Z,7.41
2022-11-02T05:43:55.469Z,7.52
2022-11-02T05:46:25.775Z,7.57
2022-11-02T05:48:53.437Z,7.64
2022-11-02T05:51:20.996Z,7.73
2022-11-02T05:53:48.533Z,7.69
2022-11-02T05:56:19.529Z,7.64
2022-11-02T05:58:55.729Z,7.65
2022-11-02T06:01:23.463Z,7.59
2022-11-02T06:03:53.770Z,7.64
2022-11-02T06:06:21.888Z,7.60
2022-11-02T06:08:49.758Z,7.65
2022-11-02T06:11:17.444Z,7.62
2022-11-02T06:13:45.224Z,7.68
2022-11-02T06:16:20.012Z,7.67
2022-11-02T06:18:50.430Z,7.53
2022-11-02T06:21:17.966Z,7.52
2022-11-02T06:23:47.929Z,7.51
2022-11-02T06:26:16.682Z,7.59
2022-11-02T06:28:44.647Z,7.73
2022-11-02T06:31:13.604Z,7.66
2022-11-02T06:33:42.231Z,7.75
2022-11-02T06:36:10.590Z,7.79
2022-11-02T06:38:38.825Z,7.79
2022-11-02T06:41:07.218Z,7.91
2022-11-02T06:43:39.825Z,7.98
2022-11-02T06:46:07.484Z,8.06
2022-11-02T06:48:36.090Z,8.12
2022-11-02T06:51:05.518Z,8.15
2022-11-02T06:53:33.113Z,8.23
2022-11-02T06:56:01.391Z,8.28
2022-11-02T06:58:29.607Z,8.47
2022-11-02T07:01:04.513Z,8.57
2022-11-02T07:03:32.536Z,8.66
2022-11-02T07:06:01.946Z,8.69
2022-11-02T07:08:29.861Z,8.77
2022-11-02T07:10:58.129Z,9.00
2022-11-02T07:13:27.439Z,9.16
2022-11-02T07:15:58.430Z,9.27
2022-11-02T07:18:26.154Z,9.35
2022-11-02T07:20:53.764Z,9.39
2022-11-02T07:23:24.136Z,9.41
2022-11-02T07:25:53.441Z,9.43
2022-11-02T07:28:21.324Z,9.41
2022-11-02T07:30:50.210Z,9.52
2022-11-02T07:33:17.824Z,9.75
2022-11-02T07:35:45.396Z,9.90
2022-11-02T07:38:12.963Z,9.97
2022-11-02T07:40:42.714Z,9.99
2022-11-02T07:43:11.081Z,10.09
2022-11-02T07:46:11.643Z,10.16
2022-11-02T07:48:39.253Z,10.21
2022-11-02T07:51:07.948Z,10.26
2022-11-02T07:53:35.509Z,10.30
2022-11-02T07:56:04.731Z,10.37
2022-11-02T07:58:32.687Z,10.35
2022-11-02T08:01:01.594Z,10.29
2022-11-02T08:03:30.000Z,10.25
2022-11-02T08:06:02.933Z,10.22
2022-11-02T08:08:30.892Z,10.30
2022-11-02T08:11:07.231Z,10.36
2022-11-02T08:13:35.760Z,10.32
2022-11-02T08:16:03.867Z,10.29
2022-11-02T08:18:34.077Z,10.24
2022-11-02T08:21:04.395Z,10.31
2022-11-02T08:23:32.305Z,10.22
2022-11-02T08:26:00.494Z,10.30
2022-11-02T08:28:36.692Z,10.28
2022-11-02T08:31:07.485Z,10.29
2022-11-02T08:33:35.097Z,10.29
2022-11-02T08:36:04.922Z,10.35
2022-11-02T08:38:32.762Z,10.50
2022-11-02T08:41:00.970Z,10.56
2022-11-02T08:43:28.681Z,10.55
2022-11-02T08:46:16.877Z,10.57
2022-11-02T08:48:45.414Z,10.62
2022-11-02T08:51:13.050Z,10.59
2022-11-02T08:53:40.678Z,10.69
2022-11-02T08:56:08.409Z,10.77
2022-11-02T08:58:35.929Z,10.78
2022-11-02T09:01:03.710Z,11.00
2022-11-02T09:03:32.222Z,11.06
2022-11-02T09:06:01.847Z,11.24
2022-11-02T09:08:30.609Z,11.33
2022-11-02T09:11:00.863Z,11.39
2022-11-02T09:13:32.182Z,11.42
2022-11-02T09:16:01.075Z,11.45
2022-11-02T09:18:29.462Z,11.41
2022-11-02T09:20:57.526Z,11.50
2022-11-02T09:23:25.136Z,11.60
2022-11-02T09:25:53.687Z,11.64
2022-11-02T09:28:23.899Z,11.68
2022-11-02T09:30:52.533Z,11.76
2022-11-02T09:33:20.151Z,11.77
2022-11-02T09:35:49.342Z,11.73
2022-11-02T09:38:18.608Z,11.68
2022-11-02T09:40:59.682Z,11.86
2022-11-02T09:43:51.058Z,11.98
2022-11-02T09:46:27.318Z,11.98
2022-11-02T09:49:23.789Z,12.07
2022-11-02T09:51:55.139Z,12.09
2022-11-02T09:54:49.520Z,12.10
2022-11-02T09:57:26.791Z,12.08
2022-11-02T09:59:55.357Z,12.03
2022-11-02T10:02:46.259Z,12.10
2022-11-02T10:05:47.530Z,12.20
2022-11-02T10:08:49.539Z,12.18
2022-11-02T10:11:58.754Z,12.14
2022-11-02T10:14:37.851Z,12.09
2022-11-02T10:17:15.536Z,12.19
2022-11-02T10:19:49.761Z,12.22
2022-11-02T10:22:17.491Z,12.30
2022-11-02T10:24:47.135Z,12.24
2022-11-02T10:27:27.305Z,12.30
2022-11-02T10:29:59.246Z,12.35
2022-11-02T10:32:27.415Z,12.37
2022-11-02T10:34:59.319Z,12.41
2022-11-02T10:38:04.431Z,12.35
2022-11-02T10:41:05.577Z,12.29
2022-11-02T10:43:33.995Z,12.32
2022-11-02T10:46:28.073Z,12.24
2022-11-02T10:48:58.530Z,12.31
2022-11-02T10:51:26.278Z,12.29
2022-11-02T10:53:54.407Z,12.30
2022-11-02T10:56:31.202Z,12.30
2022-11-02T10:58:59.871Z,12.21
2022-11-02T11:01:29.493Z,12.14
2022-11-02T11:04:06.498Z,12.15
2022-11-02T11:06:39.776Z,12.09
2022-11-02T11:09:17.825Z,12.15
2022-11-02T11:11:57.404Z,12.23
2022-11-02T11:20:38.591Z,12.23
2022-11-02T11:23:24.732Z,12.20
2022-11-02T11:26:02.452Z,12.12
2022-11-02T11:28:38.028Z,12.13
2022-11-02T11:31:09.991Z,12.11
2022-11-02T11:33:47.601Z,12.15
2022-11-02T11:36:33.361Z,12.20
2022-11-02T11:39:22.220Z,12.20
2022-11-02T11:41:50.590Z,12.17
2022-11-02T11:44:19.061Z,12.11
2022-11-02T11:46:51.088Z,12.08
2022-11-02T11:49:41.553Z,12.11
2022-11-02T11:52:32.089Z,12.09
2022-11-02T11:55:02.608Z,12.09
2022-11-02T11:57:32.784Z,12.04
2022-11-02T12:00:05.128Z,12.02
2022-11-02T12:02:43.997Z,11.98
2022-11-02T12:05:15.386Z,12.03
2022-11-02T12:07:57.192Z,12.02
2022-11-02T12:10:42.947Z,11.99
2022-11-02T12:13:43.295Z,11.92
2022-11-02T12:16:21.456Z,11.90
2022-11-02T12:19:11.581Z,11.88
2022-11-02T12:21:55.293Z,11.86
2022-11-02T12:24:37.566Z,11.88
2022-11-02T12:27:31.605Z,11.88
2022-11-02T12:29:59.066Z,11.83
2022-11-02T12:32:44.834Z,11.80
2022-11-02T12:35:29.413Z,11.76
2022-11-02T12:38:08.493Z,11.77
2022-11-02T12:40:57.637Z,11.82
2022-11-02T12:43:38.236Z,11.86
2022-11-02T12:46:05.736Z,11.85
2022-11-02T12:49:10.521Z,11.88
2022-11-02T12:52:07.947Z,11.85
2022-11-02T12:54:47.657Z,11.77
2022-11-02T12:57:20.040Z,11.75
2022-11-02T12:59:54.918Z,11.78
2022-11-02T13:02:46.786Z,11.75
2022-11-02T13:05:25.546Z,11.75
2022-11-02T13:08:00.485Z,11.82
2022-11-02T13:10:35.983Z,11.81
2022-11-02T13:13:14.499Z,11.83
2022-11-02T13:15:46.599Z,11.78
2022-11-02T13:18:20.010Z,11.76
2022-11-02T13:20:56.786Z,11.74
2022-11-02T13:23:42.990Z,11.72
2022-11-02T13:26:20.058Z,11.77
2022-11-02T13:28:50.689Z,11.77
2022-11-02T13:31:37.803Z,11.73
2022-11-02T13:34:11.860Z,11.73
2022-11-02T13:36:42.530Z,11.72
2022-11-02T13:39:16.538Z,11.68
2022-11-02T13:42:13.980Z,11.67
2022-11-02T13:44:47.590Z,11.65
2022-11-02T13:47:40.043Z,11.65
2022-11-02T13:50:15.102Z,11.71
2022-11-02T13:52:55.574Z,11.70
2022-11-02T13:55:44.619Z,11.65
2022-11-02T13:58:46.907Z,11.68
2022-11-02T14:01:19.351Z,11.69
2022-11-02T14:04:01.697Z,11.69
2022-11-02T14:06:33.453Z,11.66
2022-11-02T14:09:09.117Z,11.63
2022-11-02T14:11:42.543Z,11.64
2022-11-02T14:14:10.297Z,11.60
2022-11-02T14:16:47.082Z,11.55
2022-11-02T14:19:20.407Z,11.54
2022-11-02T14:21:51.160Z,11.55
2022-11-02T14:24:33.956Z,11.54
2022-11-02T14:27:13.988Z,11.55
2022-11-02T14:29:47.754Z,11.50
2022-11-02T14:32:34.775Z,11.52
2022-11-02T14:35:27.529Z,11.50
2022-11-02T14:38:40.896Z,11.38
2022-11-02T14:41:21.326Z,11.29
2022-11-02T14:44:23.481Z,11.27
2022-11-02T14:47:00.267Z,11.24
2022-11-02T14:49:32.449Z,11.25
2022-11-02T14:52:08.686Z,11.25
2022-11-02T14:54:53.896Z,11.29
2022-11-02T14:57:38.544Z,11.31
2022-11-02T15:00:21.098Z,11.29
2022-11-02T15:02:53.287Z,11.29
2022-11-02T15:05:26.942Z,11.33
2022-11-02T15:08:21.793Z,11.33
2022-11-02T15:10:49.354Z,11.35
2022-11-02T15:13:20.213Z,11.46
2022-11-02T15:15:50.631Z,11.40
2022-11-02T15:18:34.450Z,11.38
2022-11-02T15:21:11.538Z,11.39
2022-11-02T15:23:52.431Z,11.35
2022-11-02T15:26:29.281Z,11.34
2022-11-02T15:29:00.792Z,11.35
2022-11-02T15:31:46.952Z,11.37
2022-11-02T15:34:34.683Z,11.36
2022-11-02T15:37:03.289Z,11.39
2022-11-02T15:39:34.459Z,11.39
2022-11-02T15:42:20.001Z,11.39
2022-11-02T15:45:42.174Z,11.41
2022-11-02T15:48:17.093Z,11.34
2022-11-02T15:50:55.094Z,11.39
2022-11-02T15:54:14.159Z,11.37
2022-11-02T15:57:07.053Z,11.41
2022-11-02T15:59:57.429Z,11.35
2022-11-02T16:02:30.755Z,11.29
2022-11-02T16:05:06.302Z,11.29
2022-11-02T16:07:50.383Z,11.23
2022-11-02T16:10:32.880Z,11.24
2022-11-02T16:13:10.703Z,11.31
2022-11-02T16:15:42.869Z,11.30
2022-11-02T16:18:30.671Z,11.28
2022-11-02T16:21:02.477Z,11.29
2022-11-02T16:23:35.674Z,11.30
2022-11-02T16:26:10.224Z,11.31
2022-11-02T16:28:40.455Z,11.27
2022-11-02T16:31:31.310Z,11.20
2022-11-02T16:34:21.522Z,11.21
2022-11-02T16:36:50.844Z,11.18
2022-11-02T16:39:23.954Z,11.21
2022-11-02T16:41:57.394Z,11.25
2022-11-02T16:44:27.820Z,11.13
2022-11-02T16:47:09.785Z,11.06
2022-11-02T16:50:36.988Z,11.01
2022-11-02T16:53:05.282Z,10.95
2022-11-02T16:55:43.400Z,10.92
2022-11-02T16:58:23.141Z,10.82
2022-11-02T17:01:02.145Z,10.75
2022-11-02T17:03:35.001Z,10.74
2022-11-02T17:06:07.057Z,10.68
2022-11-02T17:08:41.956Z,10.62
2022-11-02T17:11:17.699Z,10.56
2022-11-02T17:14:00.166Z,10.43
2022-11-02T17:16:36.393Z,10.37
2022-11-02T17:19:29.281Z,10.27
2022-11-02T17:22:26.732Z,10.21
2022-11-02T17:25:33.034Z,10.15
2022-11-02T17:28:04.365Z,10.24
2022-11-02T17:30:35.070Z,10.23
2022-11-02T17:33:10.468Z,10.18
2022-11-02T17:35:47.049Z,10.16
2022-11-02T17:38:16.487Z,10.13
2022-11-02T17:40:44.416Z,10.09
2022-11-02T17:43:12.055Z,10.13
2022-11-02T17:45:40.373Z,10.10
2022-11-02T17:48:10.974Z,10.16
2022-11-02T17:50:41.600Z,10.15
2022-11-02T17:53:13.027Z,10.12
2022-11-02T17:55:42.727Z,10.11
2022-11-02T17:58:11.360Z,10.08
2022-11-02T18:00:38.929Z,10.05
2022-11-02T18:03:15.482Z,10.01
2022-11-02T18:05:46.768Z,10.03
2022-11-02T18:08:20.168Z,10.10
2022-11-02T18:10:51.051Z,10.01
2022-11-02T18:13:21.539Z,9.96
2022-11-02T18:15:51.050Z,9.92
2022-11-02T18:18:18.770Z,9.81
2022-11-02T18:20:46.329Z,9.78
2022-11-02T18:23:16.875Z,9.68
2022-11-02T18:25:45.443Z,9.67
2022-11-02T18:28:13.977Z,9.66
2022-11-02T18:30:44.269Z,9.72
2022-11-02T18:33:14.388Z,9.73
2022-11-02T18:35:42.900Z,9.72
2022-11-02T18:38:10.535Z,9.79
2022-11-02T18:40:39.040Z,9.78
2022-11-02T18:43:07.968Z,9.80
2022-11-02T18:45:36.356Z,9.84
2022-11-02T18:48:04.426Z,9.84
2022-11-02T18:50:47.037Z,9.85
2022-11-02T18:53:14.723Z,9.90
2022-11-02T18:55:42.830Z,9.94
2022-11-02T18:58:11.911Z,9.99
2022-11-02T19:00:40.493Z,10.01
2022-11-02T19:03:11.513Z,10.00
2022-11-02T19:05:59.309Z,9.94
2022-11-02T19:08:45.971Z,9.85
2022-11-02T19:11:15.947Z,9.80
2022-11-02T19:13:46.616Z,9.77
2022-11-02T19:16:16.855Z,9.69
2022-11-02T19:18:44.592Z,9.66
2022-11-02T19:21:13.199Z,9.65
2022-11-02T19:23:42.042Z,9.70
2022-11-02T19:26:12.550Z,9.73
2022-11-02T19:28:40.376Z,9.68
2022-11-02T19:31:10.221Z,9.65
2022-11-02T19:33:38.090Z,9.65
2022-11-02T19:36:06.438Z,9.62
2022-11-02T19:38:38.512Z,9.64
2022-11-02T19:41:11.678Z,9.70
2022-11-02T19:43:41.808Z,9.72
2022-11-02T19:46:20.524Z,9.65
2022-11-02T19:48:48.803Z,9.72
2022-11-02T19:51:23.203Z,9.68
2022-11-02T19:53:55.849Z,9.64
2022-11-02T19:56:24.999Z,9.59
2022-11-02T19:59:03.781Z,9.56
2022-11-02T20:01:38.565Z,9.52
2022-11-02T20:04:07.452Z,9.55
2022-11-02T20:06:41.119Z,9.63
2022-11-02T20:09:17.029Z,9.55
2022-11-02T20:11:48.450Z,9.52
2022-11-02T20:14:18.616Z,9.41
2022-11-02T20:17:04.236Z,9.32
2022-11-02T20:19:41.481Z,9.24
2022-11-02T20:22:11.133Z,9.30
2022-11-02T20:24:39.402Z,9.34
2022-11-02T20:27:12.828Z,9.22
2022-11-02T20:29:40.795Z,9.18
2022-11-02T20:32:12.656Z,9.07
2022-11-02T20:34:42.301Z,9.06
2022-11-02T20:37:11.164Z,9.03
2022-11-02T20:39:39.931Z,9.10
2022-11-02T20:42:13.742Z,9.06
2022-11-02T20:44:41.429Z,9.05
2022-11-02T20:47:09.919Z,9.03
2022-11-02T20:49:55.215Z,8.95
2022-11-02T20:52:23.794Z,9.02
2022-11-02T20:54:51.555Z,9.17
2022-11-02T20:57:19.243Z,9.13
2022-11-02T20:59:47.620Z,9.05
2022-11-02T21:02:16.648Z,8.97
2022-11-02T21:04:45.523Z,8.96
2022-11-02T21:07:16.014Z,8.89
2022-11-02T21:09:43.631Z,8.88
2022-11-02T21:12:33.381Z,8.68
2022-11-02T21:15:05.910Z,8.58
2022-11-02T21:17:36.800Z,8.53
2022-11-02T21:20:32.697Z,8.52
2022-11-02T21:22:59.391Z,8.69
2022-11-02T21:25:36.107Z,8.71
2022-11-02T21:28:06.456Z,8.66
2022-11-02T21:30:34.483Z,8.68
2022-11-02T21:33:04.530Z,8.61
2022-11-02T21:35:37.340Z,8.53
2022-11-02T21:38:13.422Z,8.52
2022-11-02T21:40:46.986Z,8.53
2022-11-02T21:43:18.296Z,8.40
2022-11-02T21:45:51.820Z,8.46
2022-11-02T21:48:21.109Z,8.40
2022-11-02T21:51:05.964Z,8.41
2022-11-02T21:53:37.664Z,8.36
2022-11-02T21:56:11.702Z,8.31
2022-11-02T21:58:44.723Z,8.20
2022-11-02T22:01:44.244Z,8.00
2022-11-02T22:04:25.539Z,7.98
2022-11-02T22:06:54.361Z,7.83
2022-11-02T22:09:22.401Z,7.83
2022-11-02T22:12:10.517Z,7.75
2022-11-02T22:14:47.246Z,7.73
2022-11-02T22:17:35.365Z,7.72
2022-11-02T22:20:05.969Z,7.62
2022-11-02T22:22:34.116Z,7.56
2022-11-02T22:25:03.081Z,7.40
2022-11-02T22:27:32.269Z,7.39
2022-11-02T22:29:59.894Z,7.32
2022-11-02T22:32:27.509Z,7.17
2022-11-02T22:35:00.140Z,7.02
2022-11-02T22:37:46.666Z,6.92
2022-11-02T22:40:14.300Z,6.85
2022-11-02T22:42:43.268Z,6.79
2022-11-02T22:45:11.049Z,6.77
2022-11-02T22:47:40.571Z,6.74
2022-11-02T22:50:08.395Z,6.73
2022-11-02T22:52:36.653Z,6.70
2022-11-02T22:55:08.961Z,6.63
2022-11-02T22:57:37.690Z,6.63
2022-11-02T23:00:05.944Z,6.60
2022-11-02T23:02:33.771Z,6.54
2022-11-02T23:05:02.596Z,6.49
2022-11-02T23:07:30.696Z,6.40
2022-11-02T23:09:59.110Z,6.38
2022-11-02T23:12:29.936Z,6.49
2022-11-02T23:14:57.832Z,6.43
2022-11-02T23:17:25.878Z,6.50
2022-11-02T23:19:53.800Z,6.41
2022-11-02T23:22:29.455Z,6.36
2022-11-02T23:25:11.741Z,6.28
2022-11-02T23:28:06.917Z,6.34
2022-11-02T23:30:58.109Z,6.35
2022-11-02T23:33:30.367Z,6.41
2022-11-02T23:36:11.581Z,6.41
2022-11-02T23:39:01.264Z,6.39
2022-11-02T23:41:32.386Z,6.27
2022-11-02T23:44:12.552Z,6.18
2022-11-02T23:46:46.249Z,5.99
2022-11-02T23:49:15.846Z,5.94
2022-11-02T23:52:03.419Z,5.94
2022-11-02T23:54:49.860Z,5.91
2022-11-02T23:57:18.807Z,5.91
2022-11-02T23:59:46.314Z,6.02
